createdAt,value
2022-12-03T00:01:14.108Z,101193.59
2022-12-03T00:03:40.945Z,101195.34
2022-12-03T00:06:07.766Z,101195.34
2022-12-03T00:08:34.349Z,101185.06
2022-12-03T00:11:00.907Z,101188.44
2022-12-03T00:13:27.422Z,101191.97
2022-12-03T00:15:54.046Z,101191.97
2022-12-03T00:18:20.675Z,101184.19
2022-12-03T00:20:47.253Z,101181.69
2022-12-03T00:23:13.790Z,101183.47
2022-12-03T00:25:40.403Z,101176.53
2022-12-03T00:28:07.698Z,101174.88
2022-12-03T00:30:34.332Z,101175.78
2022-12-03T00:33:00.874Z,101180.97
2022-12-03T00:35:27.410Z,101180.84
2022-12-03T00:37:54.772Z,101181.75
2022-12-03T00:40:21.404Z,101176.63
2022-12-03T00:42:47.940Z,101173.25
2022-12-03T00:45:14.478Z,101173.25
2022-12-03T00:47:41.022Z,101177.56
2022-12-03T00:50:08.526Z,101180.13
2022-12-03T00:52:35.052Z,101180.13
2022-12-03T00:55:01.678Z,101173.25
2022-12-03T00:57:28.283Z,101171.53
2022-12-03T00:59:54.820Z,101169.84
2022-12-03T01:02:21.624Z,101166.47
2022-12-03T01:04:48.387Z,101166.47
2022-12-03T01:07:14.968Z,101156.19
2022-12-03T01:09:41.504Z,101168.22
2022-12-03T01:12:08.113Z,101159.56
2022-12-03T01:14:34.917Z,101156.19
2022-12-03T01:17:01.485Z,101163.88
2022-12-03T01:19:28.185Z,101163.88
2022-12-03T01:21:56.212Z,101160.47
2022-12-03T01:24:24.712Z,101157.94
2022-12-03T01:26:53.075Z,101158.81
2022-12-03T01:29:21.060Z,101157.94
2022-12-03T01:32:09.246Z,101154.44
2022-12-03T01:34:37.588Z,101157.84
2022-12-03T01:37:06.296Z,101162.97
2022-12-03T01:39:34.720Z,101166.34
2022-12-03T01:42:03.484Z,101166.34
2022-12-03T01:44:35.530Z,101159.47
2022-12-03T01:47:07.520Z,101163.78
2022-12-03T01:49:42.853Z,101171.41
2022-12-03T01:52:13.553Z,101164.50
2022-12-03T01:54:47.577Z,101160.28
2022-12-03T01:59:59.992Z,101159.34
2022-12-03T02:02:30.211Z,101158.56
2022-12-03T02:04:57.727Z,101152.47
2022-12-03T02:10:02.721Z,101154.19
2022-12-03T02:12:41.361Z,101149.06
2022-12-03T02:15:09.327Z,101154.19
2022-12-03T02:17:36.183Z,101140.56
2022-12-03T02:20:05.480Z,101143.13
2022-12-03T02:25:41.430Z,101143.13
2022-12-03T02:28:09.687Z,101140.44
2022-12-03T02:30:37.118Z,101139.63
2022-12-03T02:33:04.139Z,101140.44
2022-12-03T02:35:33.496Z,101141.28
2022-12-03T02:38:06.442Z,101142.97
2022-12-03T02:40:34.318Z,101141.28
2022-12-03T02:43:03.835Z,101136.94
2022-12-03T02:45:34.435Z,101148.09
2022-12-03T02:48:05.514Z,101142.84
2022-12-03T02:50:39.519Z,101145.25
2022-12-03T02:53:11.861Z,101143.38
2022-12-03T02:55:39.195Z,101139.66
2022-12-03T02:58:06.695Z,101142.94
2022-12-03T03:00:35.730Z,101141.91
2022-12-03T03:03:04.535Z,101138.34
2022-12-03T03:05:31.496Z,101131.25
2022-12-03T03:07:59.466Z,101137.03
2022-12-03T03:10:27.431Z,101131.66
2022-12-03T03:12:55.639Z,101128.06
2022-12-03T03:15:23.774Z,101124.41
2022-12-03T03:17:50.665Z,101133.72
2022-12-03T03:20:18.632Z,101135.34
2022-12-03T03:22:45.424Z,101127.56
2022-12-03T03:25:17.441Z,101129.34
2022-12-03T03:27:45.561Z,101129.34
2022-12-03T03:30:13.472Z,101125.94
2022-12-03T03:32:40.769Z,101133.78
2022-12-03T03:35:09.285Z,101124.41
2022-12-03T03:37:36.044Z,101127.94
2022-12-03T03:40:02.631Z,101126.28
2022-12-03T03:42:29.355Z,101132.38
2022-12-03T03:44:56.155Z,101138.41
2022-12-03T03:47:23.861Z,101131.66
2022-12-03T03:49:50.921Z,101135.06
2022-12-03T03:52:19.205Z,101134.28
2022-12-03T03:54:46.321Z,101132.59
2022-12-03T03:57:13.050Z,101126.66
2022-12-03T03:59:39.649Z,101125.81
2022-12-03T04:02:06.225Z,101126.75
2022-12-03T04:04:36.696Z,101131.13
2022-12-03T04:07:03.223Z,101135.97
2022-12-03T04:09:29.752Z,101133.66
2022-12-03T04:12:16.201Z,101135.50
2022-12-03T04:14:42.725Z,101140.63
2022-12-03T04:17:09.345Z,101128.72
2022-12-03T04:19:35.884Z,101131.25
2022-12-03T04:22:22.371Z,101131.41
2022-12-03T04:24:49.165Z,101135.75
2022-12-03T04:27:35.653Z,101134.91
2022-12-03T04:30:02.167Z,101130.59
2022-12-03T04:32:48.619Z,101135.75
2022-12-03T04:35:35.279Z,101128.06
2022-12-03T04:38:02.562Z,101132.34
2022-12-03T04:40:49.019Z,101122.06
2022-12-03T04:43:15.538Z,101125.47
2022-12-03T04:45:42.140Z,101123.69
2022-12-03T04:48:08.709Z,101127.22
2022-12-03T04:50:35.270Z,101125.47
2022-12-03T04:53:01.820Z,101122.91
2022-12-03T04:55:28.374Z,101122.91
2022-12-03T04:57:54.939Z,101118.63
2022-12-03T05:00:21.687Z,101113.41
2022-12-03T05:02:48.279Z,101115.13
2022-12-03T05:05:15.001Z,101115.97
2022-12-03T05:07:41.684Z,101104.84
2022-12-03T05:10:08.854Z,101106.53
2022-12-03T05:12:35.743Z,101107.38
2022-12-03T05:15:03.515Z,101108.16
2022-12-03T05:17:30.088Z,101108.16
2022-12-03T05:20:16.547Z,101108.16
2022-12-03T05:22:43.856Z,101098.72
2022-12-03T05:25:10.568Z,101102.13
2022-12-03T05:27:37.153Z,101095.19
2022-12-03T05:30:04.114Z,101101.16
2022-12-03T05:32:31.199Z,101097.69
2022-12-03T05:34:57.770Z,101097.56
2022-12-03T05:37:24.300Z,101090.69
2022-12-03T05:39:50.817Z,101087.19
2022-12-03T05:42:37.296Z,101077.66
2022-12-03T05:45:04.158Z,101081.84
2022-12-03T05:47:30.714Z,101076.59
2022-12-03T05:49:57.267Z,101069.69
2022-12-03T05:52:23.831Z,101067.94
2022-12-03T05:54:50.477Z,101070.50
2022-12-03T05:57:17.105Z,101067.13
2022-12-03T05:59:43.633Z,101058.53
2022-12-03T06:02:10.214Z,101055.91
2022-12-03T06:04:36.760Z,101046.53
2022-12-03T06:07:03.314Z,101048.22
2022-12-03T06:09:29.874Z,101043.97
2022-12-03T06:11:56.414Z,101043.91
2022-12-03T06:14:22.987Z,101040.41
2022-12-03T06:16:49.593Z,101038.66
2022-12-03T06:19:16.125Z,101036.78
2022-12-03T06:21:42.663Z,101036.63
2022-12-03T06:24:09.275Z,101039.06
2022-12-03T06:26:36.154Z,101036.34
2022-12-03T06:29:02.746Z,101036.16
2022-12-03T06:31:29.425Z,101033.38
2022-12-03T06:33:56.031Z,101024.69
2022-12-03T06:36:23.487Z,101021.88
2022-12-03T06:38:50.182Z,101020.03
2022-12-03T06:41:16.716Z,101021.53
2022-12-03T06:43:43.266Z,101012.81
2022-12-03T06:46:10.003Z,101017.81
2022-12-03T06:48:36.568Z,101015.94
2022-12-03T06:51:03.115Z,101022.69
2022-12-03T06:53:29.858Z,101019.09
2022-12-03T06:55:56.745Z,101018.97
2022-12-03T06:58:23.303Z,101016.41
2022-12-03T07:00:49.837Z,101019.84
2022-12-03T07:03:16.473Z,101018.06
2022-12-03T07:05:43.106Z,101018.06
2022-12-03T07:08:09.735Z,101013.72
2022-12-03T07:10:36.332Z,101013.72
2022-12-03T07:13:02.921Z,101011.97
2022-12-03T07:15:29.556Z,101011.97
2022-12-03T07:17:56.096Z,101013.72
2022-12-03T07:20:22.844Z,101018.06
2022-12-03T07:22:49.394Z,101016.41
2022-12-03T07:25:22.611Z,101006.22
2022-12-03T07:27:49.898Z,101007.25
2022-12-03T07:30:16.934Z,101001.34
2022-12-03T07:32:43.504Z,101002.31
2022-12-03T07:35:10.325Z,101003.25
2022-12-03T07:37:37.079Z,100998.13
2022-12-03T07:40:06.239Z,100993.00
2022-12-03T07:42:32.866Z,100993.91
2022-12-03T07:44:59.418Z,100987.03
2022-12-03T07:47:26.481Z,100988.78
2022-12-03T07:49:53.077Z,100994.78
2022-12-03T07:52:19.633Z,100999.03
2022-12-03T07:54:46.159Z,100991.28
2022-12-03T07:57:13.736Z,100981.78
2022-12-03T07:59:40.323Z,100983.53
2022-12-03T08:02:06.900Z,100990.44
2022-12-03T08:04:33.499Z,100978.28
2022-12-03T08:07:00.029Z,100976.53
2022-12-03T08:09:26.643Z,100977.34
2022-12-03T08:11:53.837Z,100979.91
2022-12-03T08:14:21.141Z,100980.69
2022-12-03T08:16:48.536Z,100987.56
2022-12-03T08:19:17.414Z,100981.53
2022-12-03T08:21:44.113Z,100974.78
2022-12-03T08:24:15.033Z,100972.94
2022-12-03T08:26:44.308Z,100976.41
2022-12-03T08:29:13.542Z,100975.44
2022-12-03T08:31:40.359Z,100970.38
2022-12-03T08:34:18.742Z,100971.19
2022-12-03T08:36:46.714Z,100964.66
2022-12-03T08:44:55.765Z,100968.59
2022-12-03T08:47:24.432Z,100965.34
2022-12-03T08:49:58.116Z,100968.00
2022-12-03T08:52:31.823Z,100967.19
2022-12-03T08:54:59.876Z,100956.94
2022-12-03T08:57:30.552Z,100951.88
2022-12-03T09:00:21.240Z,100959.56
2022-12-03T09:02:51.394Z,100954.44
2022-12-03T09:05:22.588Z,100955.34
2022-12-03T09:07:49.425Z,100955.41
2022-12-03T09:10:16.175Z,100952.00
2022-12-03T09:12:42.761Z,100946.06
2022-12-03T09:15:09.697Z,100943.59
2022-12-03T09:17:36.291Z,100940.31
2022-12-03T09:20:03.800Z,100941.47
2022-12-03T09:22:30.352Z,100928.84
2022-12-03T09:24:56.918Z,100937.81
2022-12-03T09:27:23.586Z,100938.94
2022-12-03T09:29:51.008Z,100938.34
2022-12-03T09:32:18.834Z,100930.03
2022-12-03T09:34:46.497Z,100921.75
2022-12-03T09:37:13.115Z,100922.94
2022-12-03T09:39:39.710Z,100924.22
2022-12-03T09:42:06.304Z,100923.44
2022-12-03T09:44:34.393Z,100923.16
2022-12-03T09:47:01.989Z,100928.69
2022-12-03T09:49:30.435Z,100917.69
2022-12-03T09:51:58.373Z,100915.03
2022-12-03T09:54:27.529Z,100915.56
2022-12-03T09:56:55.792Z,100921.91
2022-12-03T09:59:25.702Z,100916.81
2022-12-03T10:01:53.463Z,100911.59
2022-12-03T10:04:20.329Z,100909.88
2022-12-03T10:06:47.853Z,100905.50
2022-12-03T10:09:20.889Z,100905.56
2022-12-03T10:11:47.660Z,100896.00
2022-12-03T10:14:17.210Z,100899.44
2022-12-03T10:16:44.005Z,100889.69
2022-12-03T10:19:21.378Z,100886.09
2022-12-03T10:21:48.124Z,100882.31
2022-12-03T10:27:25.241Z,100876.63
2022-12-03T10:29:57.397Z,100878.41
2022-12-03T10:32:27.934Z,100866.72
2022-12-03T10:35:09.517Z,100865.41
2022-12-03T10:37:36.202Z,100869.97
2022-12-03T10:40:09.126Z,100857.88
2022-12-03T10:42:38.543Z,100858.66
2022-12-03T10:51:07.064Z,100842.75
2022-12-03T10:53:37.547Z,100832.28
2022-12-03T10:56:07.480Z,100834.78
2022-12-03T10:58:37.328Z,100825.13
2022-12-03T11:01:13.763Z,100831.84
2022-12-03T11:03:40.677Z,100821.19
2022-12-03T11:06:14.994Z,100826.13
2022-12-03T11:08:44.670Z,100819.84
2022-12-03T11:11:29.105Z,100811.75
2022-12-03T11:22:38.573Z,100810.72
2022-12-03T11:31:40.890Z,100806.47
2022-12-03T11:37:22.207Z,100795.84
2022-12-03T11:42:41.110Z,100793.00
2022-12-03T11:48:15.591Z,100781.56
2022-12-03T11:53:34.051Z,100777.72
2022-12-03T11:56:08.929Z,100770.81
2022-12-03T11:58:38.366Z,100773.25
2022-12-03T12:01:07.449Z,100773.19
2022-12-03T12:03:36.930Z,100774.97
2022-12-03T12:08:58.766Z,100768.69
2022-12-03T12:14:26.435Z,100763.41
2022-12-03T12:16:55.269Z,100760.81
2022-12-03T12:19:40.103Z,100776.97
2022-12-03T12:22:17.174Z,100759.72
2022-12-03T12:24:47.172Z,100747.69
2022-12-03T12:35:47.421Z,100742.69
2022-12-03T12:38:17.320Z,100740.94
2022-12-03T12:40:46.901Z,100740.94
2022-12-03T12:46:45.940Z,100737.50
2022-12-03T12:49:01.391Z,100732.38
2022-12-03T12:51:27.989Z,100730.69
2022-12-03T12:53:54.832Z,100727.22
2022-12-03T12:59:15.600Z,100724.59
2022-12-03T13:01:44.087Z,100715.13
2022-12-03T13:04:13.137Z,100703.84
2022-12-03T13:06:40.222Z,100705.59
2022-12-03T13:09:24.718Z,100704.72
2022-12-03T13:11:55.780Z,100706.53
2022-12-03T13:14:25.598Z,100699.69
2022-12-03T13:16:54.667Z,100692.84
2022-12-03T13:22:16.180Z,100692.88
2022-12-03T13:24:45.581Z,100689.41
2022-12-03T13:30:16.583Z,100688.41
2022-12-03T13:32:44.077Z,100685.75
2022-12-03T13:38:00.603Z,100677.25
2022-12-03T13:40:31.460Z,100671.31
2022-12-03T13:42:58.406Z,100670.47
2022-12-03T13:48:23.876Z,100676.47
2022-12-03T13:50:52.432Z,100665.13
2022-12-03T13:56:30.406Z,100659.06
2022-12-03T13:59:00.113Z,100661.59
2022-12-03T14:01:28.162Z,100647.78
2022-12-03T14:03:54.931Z,100643.53
2022-12-03T14:06:21.601Z,100641.06
2022-12-03T14:08:48.165Z,100643.72
2022-12-03T14:11:34.712Z,100635.97
2022-12-03T14:14:01.413Z,100641.28
2022-12-03T14:16:28.039Z,100636.25
2022-12-03T14:18:54.726Z,100637.91
2022-12-03T14:21:21.369Z,100639.56
2022-12-03T14:23:47.932Z,100646.50
2022-12-03T14:26:14.517Z,100642.19
2022-12-03T14:28:41.064Z,100645.56
2022-12-03T14:31:08.031Z,100644.66
2022-12-03T14:33:34.610Z,100636.00
2022-12-03T14:36:01.186Z,100635.97
2022-12-03T14:38:27.796Z,100630.81
2022-12-03T14:40:54.323Z,100625.66
2022-12-03T14:43:20.874Z,100627.25
2022-12-03T14:45:47.455Z,100625.53
2022-12-03T14:48:13.987Z,100626.28
2022-12-03T14:50:40.572Z,100616.00
2022-12-03T14:53:07.109Z,100624.44
2022-12-03T14:55:33.687Z,100621.88
2022-12-03T14:58:00.228Z,100617.56
2022-12-03T15:00:26.774Z,100614.97
2022-12-03T15:02:53.388Z,100615.00
2022-12-03T15:05:24.918Z,100612.47
2022-12-03T15:07:55.028Z,100617.59
2022-12-03T15:10:21.646Z,100617.50
2022-12-03T15:12:48.233Z,100613.19
2022-12-03T15:15:14.843Z,100612.31
2022-12-03T15:17:41.890Z,100614.84
2022-12-03T15:20:08.948Z,100610.47
2022-12-03T15:22:35.501Z,100615.53
2022-12-03T15:25:03.431Z,100613.78
2022-12-03T15:27:30.011Z,100606.03
2022-12-03T15:29:56.768Z,100613.63
2022-12-03T15:32:23.488Z,100603.19
2022-12-03T15:34:51.369Z,100609.28
2022-12-03T15:37:18.066Z,100612.66
2022-12-03T15:39:48.339Z,100606.63
2022-12-03T15:42:15.515Z,100617.72
2022-12-03T15:44:42.094Z,100608.13
2022-12-03T15:47:08.678Z,100606.44
2022-12-03T15:49:35.252Z,100602.13
2022-12-03T15:52:01.801Z,100604.66
2022-12-03T15:54:28.359Z,100602.00
2022-12-03T15:56:57.384Z,100606.22
2022-12-03T15:59:24.534Z,100596.72
2022-12-03T16:01:51.194Z,100598.34
2022-12-03T16:04:17.798Z,100603.41
2022-12-03T16:06:44.329Z,100601.69
2022-12-03T16:09:10.897Z,100606.75
2022-12-03T16:11:37.443Z,100605.00
2022-12-03T16:14:03.977Z,100609.25
2022-12-03T16:16:30.589Z,100598.09
2022-12-03T16:18:57.231Z,100605.78
2022-12-03T16:21:27.081Z,100608.38
2022-12-03T16:23:54.289Z,100611.75
2022-12-03T16:26:20.901Z,100604.78
2022-12-03T16:28:47.430Z,100601.34
2022-12-03T16:31:14.202Z,100601.34
2022-12-03T16:33:40.842Z,100596.97
2022-12-03T16:36:07.764Z,100596.13
2022-12-03T16:38:35.344Z,100595.19
2022-12-03T16:41:02.238Z,100596.03
2022-12-03T16:43:28.907Z,100595.97
2022-12-03T16:48:50.116Z,100594.31
2022-12-03T16:51:16.813Z,100593.38
2022-12-03T16:53:43.411Z,100587.28
2022-12-03T16:56:10.062Z,100586.34
2022-12-03T16:58:36.719Z,100583.78
2022-12-03T17:01:03.779Z,100586.34
2022-12-03T17:03:33.838Z,100588.94
2022-12-03T17:06:01.292Z,100590.63
2022-12-03T17:08:28.184Z,100588.84
2022-12-03T17:10:54.780Z,100583.66
2022-12-03T17:13:23.194Z,100584.44
2022-12-03T17:15:50.511Z,100577.56
2022-12-03T17:18:17.148Z,100576.56
2022-12-03T17:20:43.719Z,100574.66
2022-12-03T17:23:10.416Z,100579.66
2022-12-03T17:25:37.086Z,100587.28
2022-12-03T17:28:03.709Z,100588.06
2022-12-03T17:30:30.262Z,100583.66
2022-12-03T17:32:56.818Z,100581.94
2022-12-03T17:35:23.472Z,100575.84
2022-12-03T17:37:50.028Z,100574.91
2022-12-03T17:40:17.392Z,100580.84
2022-12-03T17:42:43.998Z,100575.56
2022-12-03T17:45:11.160Z,100578.06
2022-12-03T17:47:37.839Z,100578.72
2022-12-03T17:50:05.053Z,100574.38
2022-12-03T17:52:31.622Z,100576.78
2022-12-03T17:55:23.622Z,100575.78
2022-12-03T17:57:44.775Z,100572.16
2022-12-03T18:00:11.871Z,100566.94
2022-12-03T18:02:38.553Z,100565.13
2022-12-03T18:05:05.420Z,100565.91
2022-12-03T18:07:32.244Z,100565.78
2022-12-03T18:09:58.919Z,100563.91
2022-12-03T18:12:25.628Z,100562.09
2022-12-03T18:14:52.197Z,100563.63
2022-12-03T18:17:18.747Z,100563.59
2022-12-03T18:19:45.300Z,100568.53
2022-12-03T18:22:12.717Z,100566.72
2022-12-03T18:24:39.392Z,100561.47
2022-12-03T18:27:06.125Z,100557.09
2022-12-03T18:29:32.695Z,100558.72
2022-12-03T18:31:59.316Z,100557.72
2022-12-03T18:34:25.922Z,100551.66
2022-12-03T18:36:52.531Z,100550.69
2022-12-03T18:39:25.511Z,100548.84
2022-12-03T18:41:53.085Z,100547.03
2022-12-03T18:44:20.000Z,100546.94
2022-12-03T18:46:54.656Z,100546.00
2022-12-03T18:49:21.914Z,100545.88
2022-12-03T18:51:48.956Z,100544.06
2022-12-03T18:54:17.215Z,100544.84
2022-12-03T18:56:43.832Z,100551.53
2022-12-03T18:59:11.266Z,100548.94
2022-12-03T19:01:37.925Z,100549.72
2022-12-03T19:04:04.667Z,100547.16
2022-12-03T19:06:31.272Z,100550.50
2022-12-03T19:08:58.002Z,100551.25
2022-12-03T19:11:24.751Z,100551.16
2022-12-03T19:13:51.900Z,100548.53
2022-12-03T19:16:21.468Z,100550.97
2022-12-03T19:18:48.410Z,100550.88
2022-12-03T19:21:16.425Z,100546.53
2022-12-03T19:24:04.165Z,100546.44
2022-12-03T19:26:30.065Z,100541.19
2022-12-03T19:28:56.694Z,100542.88
2022-12-03T19:31:23.369Z,100536.75
2022-12-03T19:33:50.789Z,100532.41
2022-12-03T19:38:59.014Z,100537.44
2022-12-03T19:41:27.454Z,100534.81
2022-12-03T19:43:55.710Z,100541.72
2022-12-03T19:46:24.374Z,100531.44
2022-12-03T19:48:51.812Z,100529.78
2022-12-03T19:51:34.165Z,100535.81
2022-12-03T19:54:02.709Z,100541.78
2022-12-03T19:56:30.480Z,100535.75
2022-12-03T19:58:57.220Z,100533.19
2022-12-03T20:01:26.518Z,100539.94
2022-12-03T20:03:55.229Z,100534.81
2022-12-03T20:06:25.219Z,100534.81
2022-12-03T20:08:57.148Z,100534.81
2022-12-03T20:11:26.519Z,100533.19
2022-12-03T20:13:56.384Z,100538.41
2022-12-03T20:16:24.434Z,100535.03
2022-12-03T20:18:55.318Z,100528.16
2022-12-03T20:21:21.880Z,100530.63
2022-12-03T20:23:48.477Z,100529.78
2022-12-03T20:26:18.350Z,100535.03
2022-12-03T20:28:45.415Z,100530.00
2022-12-03T20:31:15.023Z,100525.72
2022-12-03T20:33:43.883Z,100530.09
2022-12-03T20:36:12.634Z,100529.25
2022-12-03T20:38:39.196Z,100532.69
2022-12-03T20:41:15.778Z,100531.81
2022-12-03T20:43:42.538Z,100528.31
2022-12-03T20:46:29.738Z,100528.16
2022-12-03T20:48:57.599Z,100528.16
2022-12-03T20:51:27.215Z,100526.41
2022-12-03T20:53:54.310Z,100524.66
2022-12-03T20:56:24.672Z,100529.88
2022-12-03T20:58:51.282Z,100524.75
2022-12-03T21:01:20.929Z,100523.13
2022-12-03T21:03:49.035Z,100519.75
2022-12-03T21:06:16.578Z,100523.19
2022-12-03T21:08:43.739Z,100531.81
2022-12-03T21:11:13.230Z,100523.31
2022-12-03T21:13:44.037Z,100521.66
2022-12-03T21:16:14.388Z,100523.41
2022-12-03T21:18:41.471Z,100523.50
2022-12-03T21:21:09.056Z,100513.25
2022-12-03T21:23:35.688Z,100513.25
2022-12-03T21:26:08.287Z,100518.38
2022-12-03T21:28:35.167Z,100513.25
2022-12-03T21:31:04.990Z,100508.13
2022-12-03T21:33:32.465Z,100513.19
2022-12-03T21:35:59.889Z,100513.16
2022-12-03T21:38:28.788Z,100510.56
2022-12-03T21:40:55.891Z,100497.75
2022-12-03T21:43:22.984Z,100496.03
2022-12-03T21:45:50.019Z,100496.03
2022-12-03T21:48:17.265Z,100492.63
2022-12-03T21:50:44.577Z,100496.81
2022-12-03T21:53:11.872Z,100493.50
2022-12-03T21:55:40.677Z,100492.63
2022-12-03T21:58:08.649Z,100495.19
2022-12-03T22:00:35.799Z,100489.19
2022-12-03T22:03:02.502Z,100499.50
2022-12-03T22:05:29.147Z,100491.75
2022-12-03T22:07:55.816Z,100487.50
2022-12-03T22:10:22.523Z,100482.28
2022-12-03T22:12:49.072Z,100483.16
2022-12-03T22:15:19.230Z,100489.06
2022-12-03T22:17:46.274Z,100477.88
2022-12-03T22:20:13.421Z,100479.56
2022-12-03T22:22:40.183Z,100477.81
2022-12-03T22:25:07.347Z,100474.41
2022-12-03T22:27:33.904Z,100468.34
2022-12-03T22:30:00.442Z,100478.72
2022-12-03T22:32:27.319Z,100472.75
2022-12-03T22:34:53.875Z,100468.56
2022-12-03T22:37:20.503Z,100477.13
2022-12-03T22:39:47.046Z,100475.50
2022-12-03T22:42:13.775Z,100465.31
2022-12-03T22:44:40.369Z,100469.69
2022-12-03T22:47:06.949Z,100474.88
2022-12-03T22:49:33.522Z,100462.06
2022-12-03T22:52:00.071Z,100465.50
2022-12-03T22:54:26.635Z,100455.16
2022-12-03T22:56:53.143Z,100462.03
2022-12-03T22:59:19.792Z,100461.16
2022-12-03T23:01:46.374Z,100453.53
2022-12-03T23:04:13.067Z,100444.91
2022-12-03T23:06:40.192Z,100467.06
2022-12-03T23:09:08.140Z,100453.38
2022-12-03T23:11:34.970Z,100461.84
2022-12-03T23:14:02.050Z,100458.34
2022-12-03T23:16:31.829Z,100458.28
2022-12-03T23:18:59.956Z,100458.19
2022-12-03T23:21:30.168Z,100454.66
2022-12-03T23:23:59.593Z,100451.25
2022-12-03T23:26:27.094Z,100449.41
2022-12-03T23:28:54.075Z,100454.44
2022-12-03T23:34:01.094Z,100455.13
2022-12-03T23:36:29.854Z,100458.47
2022-12-03T23:38:57.353Z,100455.84
2022-12-03T23:41:25.141Z,100457.44
2022-12-03T23:43:51.901Z,100461.72
2022-12-03T23:46:22.411Z,100453.97
2022-12-03T23:48:49.200Z,100453.09
2022-12-03T23:51:19.045Z,100466.84
2022-12-03T23:53:46.478Z,100460.81
2022-12-03T23:56:16.284Z,100450.69
2022-12-03T23:58:43.860Z,100457.53
